CFWAL KTEB-CYTZ
Flight info
| Callsign | CFWAL |
|---|---|
| Flight time | N/A |
| Altitude | 24000 |
| Route | GAYEL Q818 WOZEE DCT KAXOL KAXOL2 |
| Aircraft | PC12/L-SDFGRWY/S |
Departure
| Time | N/A |
|---|---|
| Airport | Teterboro Airport (KTEB) |
Arrival
| Time | 2026-05-04 01:55 |
|---|---|
| Airport | Billy Bishop Toronto City Airport (CYTZ) |
| Time | Latitude | Longitude | Altitude | Speed | Heading |
|---|---|---|---|---|---|
| 2026-05-04 00:58 | 41.93766 | -75.60718 | 23946 ft | 237 kts | 307° |
| 2026-05-04 00:59 | 41.94919 | -75.63199 | 23951 ft | 234 kts | 297° |
| 2026-05-04 00:59 | 41.95709 | -75.65118 | 23944 ft | 235 kts | 297° |
| 2026-05-04 00:59 | 41.96510 | -75.67033 | 23941 ft | 235 kts | 297° |
| 2026-05-04 00:59 | 41.97311 | -75.68950 | 23944 ft | 235 kts | 297° |
| 2026-05-04 01:00 | 41.98109 | -75.70872 | 23937 ft | 236 kts | 297° |
| 2026-05-04 01:00 | 41.98906 | -75.72795 | 23930 ft | 235 kts | 297° |
| 2026-05-04 01:00 | 41.99704 | -75.74718 | 23929 ft | 236 kts | 297° |
| 2026-05-04 01:00 | 42.00503 | -75.76643 | 23936 ft | 236 kts | 297° |
| 2026-05-04 01:01 | 42.01299 | -75.78565 | 23937 ft | 235 kts | 297° |
| 2026-05-04 01:01 | 42.02096 | -75.80489 | 23932 ft | 235 kts | 297° |
| 2026-05-04 01:01 | 42.02891 | -75.82410 | 23932 ft | 235 kts | 297° |
| 2026-05-04 01:01 | 42.03686 | -75.84331 | 23928 ft | 235 kts | 298° |
| 2026-05-04 01:02 | 42.04479 | -75.86251 | 23929 ft | 235 kts | 298° |
| 2026-05-04 01:02 | 42.05271 | -75.88168 | 23923 ft | 235 kts | 298° |
| 2026-05-04 01:02 | 42.06063 | -75.90086 | 23922 ft | 235 kts | 298° |
| 2026-05-04 01:02 | 42.06855 | -75.92006 | 23919 ft | 235 kts | 298° |
| 2026-05-04 01:03 | 42.07647 | -75.93927 | 23921 ft | 235 kts | 298° |
| 2026-05-04 01:03 | 42.08440 | -75.95851 | 23921 ft | 235 kts | 298° |
| 2026-05-04 01:03 | 42.09232 | -75.97776 | 23923 ft | 235 kts | 298° |
| 2026-05-04 01:03 | 42.10024 | -75.99701 | 23927 ft | 235 kts | 298° |
| 2026-05-04 01:04 | 42.10814 | -76.01622 | 23922 ft | 235 kts | 298° |
| 2026-05-04 01:04 | 42.11606 | -76.03548 | 23920 ft | 235 kts | 298° |
| 2026-05-04 01:04 | 42.12396 | -76.05474 | 23922 ft | 235 kts | 298° |
| 2026-05-04 01:04 | 42.13187 | -76.07399 | 23920 ft | 235 kts | 298° |
| 2026-05-04 01:05 | 42.13966 | -76.09299 | 23924 ft | 235 kts | 298° |
| 2026-05-04 01:05 | 42.14755 | -76.11223 | 23926 ft | 235 kts | 298° |
| 2026-05-04 01:05 | 42.15543 | -76.13148 | 23927 ft | 234 kts | 298° |
| 2026-05-04 01:05 | 42.16227 | -76.15130 | 23928 ft | 233 kts | 293° |
| 2026-05-04 01:06 | 42.16866 | -76.17137 | 23929 ft | 233 kts | 293° |
| 2026-05-04 01:06 | 42.17514 | -76.19144 | 23928 ft | 234 kts | 294° |
| 2026-05-04 01:06 | 42.18164 | -76.21156 | 23927 ft | 234 kts | 293° |
| 2026-05-04 01:06 | 42.18811 | -76.23171 | 23930 ft | 234 kts | 293° |
| 2026-05-04 01:07 | 42.19457 | -76.25184 | 23926 ft | 234 kts | 294° |
| 2026-05-04 01:07 | 42.20103 | -76.27198 | 23926 ft | 234 kts | 294° |
| 2026-05-04 01:07 | 42.20749 | -76.29215 | 23927 ft | 234 kts | 294° |
| 2026-05-04 01:07 | 42.21395 | -76.31230 | 23928 ft | 234 kts | 294° |
| 2026-05-04 01:08 | 42.22040 | -76.33246 | 23931 ft | 234 kts | 294° |
| 2026-05-04 01:08 | 42.22686 | -76.35263 | 23927 ft | 234 kts | 294° |
| 2026-05-04 01:08 | 42.23331 | -76.37281 | 23934 ft | 234 kts | 294° |
| 2026-05-04 01:08 | 42.23975 | -76.39300 | 23932 ft | 234 kts | 294° |
| 2026-05-04 01:09 | 42.24619 | -76.41317 | 23931 ft | 234 kts | 294° |
| 2026-05-04 01:09 | 42.25263 | -76.43334 | 23931 ft | 234 kts | 294° |
| 2026-05-04 01:09 | 42.25906 | -76.45353 | 23931 ft | 234 kts | 294° |
| 2026-05-04 01:09 | 42.26549 | -76.47372 | 23932 ft | 234 kts | 294° |
| 2026-05-04 01:10 | 42.27192 | -76.49393 | 23931 ft | 234 kts | 294° |
| 2026-05-04 01:10 | 42.27834 | -76.51410 | 23929 ft | 234 kts | 294° |
| 2026-05-04 01:10 | 42.28476 | -76.53431 | 23932 ft | 234 kts | 294° |
| 2026-05-04 01:10 | 42.29117 | -76.55452 | 23929 ft | 234 kts | 294° |
| 2026-05-04 01:11 | 42.29758 | -76.57473 | 23932 ft | 234 kts | 294° |
| 2026-05-04 01:11 | 42.30398 | -76.59493 | 23930 ft | 234 kts | 294° |
| 2026-05-04 01:11 | 42.31038 | -76.61512 | 23926 ft | 234 kts | 294° |
| 2026-05-04 01:11 | 42.31677 | -76.63532 | 23927 ft | 234 kts | 294° |
| 2026-05-04 01:12 | 42.32317 | -76.65553 | 23928 ft | 234 kts | 294° |
| 2026-05-04 01:12 | 42.32955 | -76.67574 | 23927 ft | 234 kts | 294° |
| 2026-05-04 01:12 | 42.33592 | -76.69591 | 23926 ft | 234 kts | 293° |
| 2026-05-04 01:12 | 42.34230 | -76.71612 | 23924 ft | 234 kts | 294° |
| 2026-05-04 01:13 | 42.34866 | -76.73632 | 23926 ft | 233 kts | 294° |
| 2026-05-04 01:13 | 42.35502 | -76.75650 | 23923 ft | 233 kts | 294° |
| 2026-05-04 01:13 | 42.36138 | -76.77669 | 23926 ft | 233 kts | 293° |
| 2026-05-04 01:13 | 42.36773 | -76.79687 | 23924 ft | 233 kts | 294° |
| 2026-05-04 01:14 | 42.37193 | -76.81024 | 23926 ft | 233 kts | 293° |
| 2026-05-04 01:14 | 42.38041 | -76.83724 | 23923 ft | 233 kts | 293° |
| 2026-05-04 01:14 | 42.38676 | -76.85745 | 23923 ft | 234 kts | 293° |
| 2026-05-04 01:14 | 42.39309 | -76.87763 | 23922 ft | 233 kts | 293° |
| 2026-05-04 01:15 | 42.39941 | -76.89781 | 23917 ft | 233 kts | 293° |
| 2026-05-04 01:15 | 42.40572 | -76.91797 | 23919 ft | 233 kts | 293° |
| 2026-05-04 01:15 | 42.41203 | -76.93811 | 23919 ft | 232 kts | 293° |
| 2026-05-04 01:15 | 42.41832 | -76.95824 | 23919 ft | 232 kts | 293° |
| 2026-05-04 01:16 | 42.42462 | -76.97838 | 23920 ft | 232 kts | 293° |
| 2026-05-04 01:16 | 42.43091 | -76.99853 | 23918 ft | 232 kts | 293° |
| 2026-05-04 01:16 | 42.43720 | -77.01869 | 23920 ft | 233 kts | 293° |
| 2026-05-04 01:16 | 42.44348 | -77.03885 | 23920 ft | 232 kts | 293° |
| 2026-05-04 01:17 | 42.44763 | -77.05218 | 23922 ft | 232 kts | 293° |
| 2026-05-04 01:17 | 42.45605 | -77.07924 | 23831 ft | 234 kts | 293° |
| 2026-05-04 01:17 | 42.46022 | -77.09263 | 23655 ft | 233 kts | 293° |
| 2026-05-04 01:17 | 42.46650 | -77.11280 | 23376 ft | 232 kts | 293° |
| 2026-05-04 01:18 | 42.47272 | -77.13283 | 23123 ft | 230 kts | 293° |
| 2026-05-04 01:18 | 42.47888 | -77.15272 | 22926 ft | 228 kts | 293° |
| 2026-05-04 01:18 | 42.48500 | -77.17248 | 22728 ft | 227 kts | 293° |
| 2026-05-04 01:18 | 42.49107 | -77.19209 | 22535 ft | 226 kts | 293° |
| 2026-05-04 01:19 | 42.49714 | -77.21171 | 22342 ft | 226 kts | 293° |
| 2026-05-04 01:19 | 42.50327 | -77.23154 | 22153 ft | 230 kts | 293° |
| 2026-05-04 01:19 | 42.50949 | -77.25167 | 21964 ft | 233 kts | 293° |
| 2026-05-04 01:19 | 42.51576 | -77.27198 | 21778 ft | 235 kts | 293° |
| 2026-05-04 01:20 | 42.52212 | -77.29261 | 21585 ft | 239 kts | 292° |
| 2026-05-04 01:20 | 42.52853 | -77.31341 | 21397 ft | 240 kts | 292° |
| 2026-05-04 01:20 | 42.53499 | -77.33438 | 21219 ft | 242 kts | 292° |
| 2026-05-04 01:20 | 42.54148 | -77.35546 | 21036 ft | 243 kts | 292° |
| 2026-05-04 01:21 | 42.54798 | -77.37658 | 20849 ft | 243 kts | 292° |
| 2026-05-04 01:21 | 42.55449 | -77.39776 | 20666 ft | 243 kts | 292° |
| 2026-05-04 01:21 | 42.56100 | -77.41896 | 20487 ft | 243 kts | 292° |
| 2026-05-04 01:21 | 42.56749 | -77.44012 | 20307 ft | 243 kts | 292° |
| 2026-05-04 01:22 | 42.57396 | -77.46125 | 20127 ft | 243 kts | 292° |
| 2026-05-04 01:22 | 42.58044 | -77.48246 | 19950 ft | 243 kts | 292° |
| 2026-05-04 01:22 | 42.58690 | -77.50360 | 19770 ft | 242 kts | 292° |
| 2026-05-04 01:22 | 42.59334 | -77.52462 | 19596 ft | 242 kts | 291° |
| 2026-05-04 01:23 | 42.59977 | -77.54568 | 19418 ft | 241 kts | 291° |
| 2026-05-04 01:23 | 42.60610 | -77.56642 | 19241 ft | 240 kts | 291° |
| 2026-05-04 01:23 | 42.61248 | -77.58733 | 19076 ft | 240 kts | 291° |
| 2026-05-04 01:23 | 42.61886 | -77.60825 | 18906 ft | 240 kts | 291° |
| 2026-05-04 01:24 | 42.62521 | -77.62909 | 18733 ft | 238 kts | 291° |
| 2026-05-04 01:24 | 42.63153 | -77.64985 | 18562 ft | 238 kts | 291° |
| 2026-05-04 01:24 | 42.63783 | -77.67057 | 18395 ft | 237 kts | 291° |
| 2026-05-04 01:24 | 42.64412 | -77.69129 | 18220 ft | 237 kts | 291° |
| 2026-05-04 01:25 | 42.65041 | -77.71201 | 18031 ft | 237 kts | 291° |
| 2026-05-04 01:25 | 42.65668 | -77.73268 | 17845 ft | 236 kts | 291° |
| 2026-05-04 01:25 | 42.66265 | -77.75342 | 17649 ft | 234 kts | 288° |
| 2026-05-04 01:25 | 42.66839 | -77.77418 | 17457 ft | 235 kts | 290° |
| 2026-05-04 01:26 | 42.67437 | -77.79486 | 17269 ft | 235 kts | 290° |
| 2026-05-04 01:26 | 42.68023 | -77.81559 | 17077 ft | 236 kts | 290° |
| 2026-05-04 01:26 | 42.68606 | -77.83648 | 16895 ft | 238 kts | 290° |
| 2026-05-04 01:26 | 42.69195 | -77.85760 | 16706 ft | 240 kts | 290° |
| 2026-05-04 01:27 | 42.69789 | -77.87887 | 16522 ft | 241 kts | 290° |
| 2026-05-04 01:27 | 42.70384 | -77.90020 | 16334 ft | 243 kts | 290° |
| 2026-05-04 01:27 | 42.70985 | -77.92180 | 16159 ft | 245 kts | 290° |
| 2026-05-04 01:27 | 42.71592 | -77.94348 | 15972 ft | 245 kts | 291° |
| 2026-05-04 01:28 | 42.72410 | -77.96392 | 15793 ft | 247 kts | 302° |
| 2026-05-04 01:28 | 42.73390 | -77.98310 | 15613 ft | 248 kts | 303° |
| 2026-05-04 01:28 | 42.74335 | -78.00273 | 15433 ft | 248 kts | 300° |
| 2026-05-04 01:28 | 42.75228 | -78.02281 | 15253 ft | 248 kts | 300° |
| 2026-05-04 01:29 | 42.76122 | -78.04290 | 15067 ft | 248 kts | 300° |
| 2026-05-04 01:29 | 42.77031 | -78.06292 | 14885 ft | 249 kts | 301° |
| 2026-05-04 01:29 | 42.77942 | -78.08293 | 14715 ft | 249 kts | 301° |
| 2026-05-04 01:29 | 42.78849 | -78.10297 | 14543 ft | 249 kts | 300° |
| 2026-05-04 01:30 | 42.79756 | -78.12305 | 14363 ft | 248 kts | 300° |
| 2026-05-04 01:30 | 42.80660 | -78.14307 | 14194 ft | 248 kts | 300° |
| 2026-05-04 01:30 | 42.81565 | -78.16311 | 14026 ft | 249 kts | 300° |
| 2026-05-04 01:30 | 42.82472 | -78.18320 | 13852 ft | 249 kts | 301° |
| 2026-05-04 01:31 | 42.83375 | -78.20324 | 13681 ft | 248 kts | 301° |
| 2026-05-04 01:31 | 42.84278 | -78.22328 | 13491 ft | 248 kts | 300° |
| 2026-05-04 01:31 | 42.85182 | -78.24334 | 13303 ft | 248 kts | 300° |
| 2026-05-04 01:31 | 42.86084 | -78.26340 | 13114 ft | 248 kts | 300° |
| 2026-05-04 01:32 | 42.86973 | -78.28316 | 12924 ft | 247 kts | 300° |
| 2026-05-04 01:32 | 42.87869 | -78.30310 | 12735 ft | 246 kts | 300° |
| 2026-05-04 01:32 | 42.88761 | -78.32296 | 12550 ft | 245 kts | 300° |
| 2026-05-04 01:32 | 42.89650 | -78.34278 | 12370 ft | 245 kts | 299° |
| 2026-05-04 01:33 | 42.90537 | -78.36257 | 12182 ft | 244 kts | 299° |
| 2026-05-04 01:33 | 42.91418 | -78.38221 | 11998 ft | 242 kts | 299° |
| 2026-05-04 01:33 | 42.92290 | -78.40167 | 11820 ft | 240 kts | 299° |
| 2026-05-04 01:33 | 42.93157 | -78.42106 | 11634 ft | 239 kts | 298° |
| 2026-05-04 01:34 | 42.94019 | -78.44034 | 11458 ft | 237 kts | 298° |
| 2026-05-04 01:34 | 42.94876 | -78.45951 | 11279 ft | 236 kts | 298° |
| 2026-05-04 01:34 | 42.95740 | -78.47885 | 11099 ft | 236 kts | 298° |
| 2026-05-04 01:34 | 42.96575 | -78.49754 | 11059 ft | 231 kts | 298° |
| 2026-05-04 01:35 | 42.97399 | -78.51600 | 11057 ft | 225 kts | 298° |
| 2026-05-04 01:35 | 42.98202 | -78.53401 | 11055 ft | 219 kts | 298° |
| 2026-05-04 01:35 | 42.98986 | -78.55162 | 11053 ft | 216 kts | 298° |
| 2026-05-04 01:35 | 42.99762 | -78.56906 | 11054 ft | 214 kts | 298° |
| 2026-05-04 01:36 | 43.00537 | -78.58650 | 11053 ft | 216 kts | 298° |
| 2026-05-04 01:36 | 43.01319 | -78.60410 | 11052 ft | 218 kts | 298° |
| 2026-05-04 01:36 | 43.02108 | -78.62184 | 11055 ft | 219 kts | 298° |
| 2026-05-04 01:36 | 43.02118 | -78.62208 | 11053 ft | 219 kts | 298° |
| 2026-05-04 01:37 | 43.02873 | -78.63907 | 11053 ft | 220 kts | 298° |
| 2026-05-04 01:37 | 43.03669 | -78.65698 | 11056 ft | 221 kts | 298° |
| 2026-05-04 01:37 | 43.04466 | -78.67494 | 11056 ft | 221 kts | 298° |
| 2026-05-04 01:38 | 43.05263 | -78.69293 | 11053 ft | 222 kts | 298° |
| 2026-05-04 01:38 | 43.06063 | -78.71099 | 11057 ft | 222 kts | 298° |
| 2026-05-04 01:38 | 43.06864 | -78.72905 | 11056 ft | 222 kts | 298° |
| 2026-05-04 01:38 | 43.07664 | -78.74713 | 11056 ft | 222 kts | 298° |
| 2026-05-04 01:39 | 43.08466 | -78.76527 | 11050 ft | 223 kts | 298° |
| 2026-05-04 01:39 | 43.09267 | -78.78340 | 11049 ft | 223 kts | 298° |
| 2026-05-04 01:39 | 43.10072 | -78.80161 | 11048 ft | 224 kts | 298° |
| 2026-05-04 01:39 | 43.10878 | -78.81988 | 11047 ft | 224 kts | 298° |
| 2026-05-04 01:40 | 43.11685 | -78.83816 | 11047 ft | 224 kts | 298° |
| 2026-05-04 01:40 | 43.12490 | -78.85646 | 11051 ft | 225 kts | 297° |
| 2026-05-04 01:40 | 43.13296 | -78.87476 | 11048 ft | 225 kts | 298° |
| 2026-05-04 01:40 | 43.14105 | -78.89308 | 11048 ft | 225 kts | 298° |
| 2026-05-04 01:41 | 43.14913 | -78.91143 | 11051 ft | 225 kts | 298° |
| 2026-05-04 01:41 | 43.15721 | -78.92980 | 11047 ft | 225 kts | 298° |
| 2026-05-04 01:41 | 43.16527 | -78.94814 | 11048 ft | 225 kts | 298° |
| 2026-05-04 01:41 | 43.17334 | -78.96652 | 11049 ft | 225 kts | 298° |
| 2026-05-04 01:42 | 43.18144 | -78.98497 | 11050 ft | 226 kts | 297° |
| 2026-05-04 01:42 | 43.18989 | -79.00300 | 11042 ft | 225 kts | 306° |
| 2026-05-04 01:42 | 43.20322 | -79.01497 | 10968 ft | 241 kts | 334° |
| 2026-05-04 01:42 | 43.22007 | -79.01926 | 10776 ft | 250 kts | 346° |
| 2026-05-04 01:43 | 43.23742 | -79.02248 | 10603 ft | 252 kts | 343° |
| 2026-05-04 01:43 | 43.25459 | -79.02734 | 10429 ft | 251 kts | 340° |
| 2026-05-04 01:43 | 43.27155 | -79.03313 | 10259 ft | 251 kts | 339° |
| 2026-05-04 01:43 | 43.28857 | -79.03872 | 10086 ft | 252 kts | 340° |
| 2026-05-04 01:44 | 43.30563 | -79.04404 | 9905 ft | 251 kts | 340° |
| 2026-05-04 01:44 | 43.32261 | -79.04931 | 9589 ft | 249 kts | 340° |
| 2026-05-04 01:44 | 43.33936 | -79.05459 | 9269 ft | 245 kts | 340° |
| 2026-05-04 01:44 | 43.35590 | -79.05985 | 8947 ft | 243 kts | 339° |
| 2026-05-04 01:45 | 43.37227 | -79.06506 | 8657 ft | 241 kts | 339° |
| 2026-05-04 01:45 | 43.38859 | -79.07024 | 8370 ft | 240 kts | 339° |
| 2026-05-04 01:45 | 43.42108 | -79.08055 | 7802 ft | 239 kts | 339° |
| 2026-05-04 01:46 | 43.43730 | -79.08570 | 7524 ft | 239 kts | 339° |
| 2026-05-04 01:46 | 43.45352 | -79.09086 | 7246 ft | 239 kts | 338° |
| 2026-05-04 01:46 | 43.46952 | -79.09595 | 6930 ft | 240 kts | 338° |
| 2026-05-04 01:46 | 43.48574 | -79.10109 | 6518 ft | 238 kts | 338° |
| 2026-05-04 01:47 | 43.50185 | -79.10620 | 6065 ft | 237 kts | 338° |
| 2026-05-04 01:47 | 43.51761 | -79.11117 | 5595 ft | 228 kts | 337° |
| 2026-05-04 01:47 | 43.52280 | -79.11281 | 5434 ft | 226 kts | 337° |
| 2026-05-04 01:47 | 43.53306 | -79.11607 | 5129 ft | 222 kts | 337° |
| 2026-05-04 01:48 | 43.54796 | -79.12085 | 4670 ft | 218 kts | 337° |
| 2026-05-04 01:48 | 43.56277 | -79.12559 | 4225 ft | 214 kts | 337° |
| 2026-05-04 01:48 | 43.57713 | -79.13017 | 3821 ft | 210 kts | 336° |
| 2026-05-04 01:48 | 43.59110 | -79.13465 | 3455 ft | 208 kts | 336° |
| 2026-05-04 01:49 | 43.60491 | -79.13981 | 3132 ft | 203 kts | 332° |
| 2026-05-04 01:49 | 43.61854 | -79.14532 | 2829 ft | 204 kts | 333° |
| 2026-05-04 01:49 | 43.63221 | -79.15064 | 2549 ft | 203 kts | 333° |
| 2026-05-04 01:49 | 43.64559 | -79.15629 | 2307 ft | 196 kts | 327° |
| 2026-05-04 01:50 | 43.65649 | -79.16614 | 2080 ft | 182 kts | 307° |
| 2026-05-04 01:50 | 43.66383 | -79.17961 | 2017 ft | 170 kts | 289° |
| 2026-05-04 01:50 | 43.66754 | -79.19460 | 2014 ft | 162 kts | 274° |
| 2026-05-04 01:50 | 43.66780 | -79.20995 | 2015 ft | 160 kts | 260° |
| 2026-05-04 01:51 | 43.66510 | -79.22481 | 2014 ft | 159 kts | 252° |
| 2026-05-04 01:51 | 43.66200 | -79.23950 | 2011 ft | 158 kts | 253° |
| 2026-05-04 01:51 | 43.65904 | -79.25379 | 2012 ft | 153 kts | 252° |
| 2026-05-04 01:51 | 43.65610 | -79.26781 | 2011 ft | 151 kts | 252° |
| 2026-05-04 01:52 | 43.65318 | -79.28164 | 2008 ft | 149 kts | 252° |
| 2026-05-04 01:52 | 43.65028 | -79.29535 | 2008 ft | 148 kts | 252° |
| 2026-05-04 01:52 | 43.64746 | -79.30885 | 1900 ft | 140 kts | 252° |
| 2026-05-04 01:52 | 43.64504 | -79.32108 | 1650 ft | 125 kts | 252° |
| 2026-05-04 01:53 | 43.64286 | -79.33190 | 1427 ft | 110 kts | 252° |
| 2026-05-04 01:53 | 43.64094 | -79.34133 | 1212 ft | 97 kts | 251° |
| 2026-05-04 01:53 | 43.63919 | -79.34985 | 1042 ft | 89 kts | 251° |
| 2026-05-04 01:53 | 43.63754 | -79.35815 | 856 ft | 88 kts | 255° |
| 2026-05-04 01:54 | 43.63635 | -79.36619 | 701 ft | 86 kts | 256° |
| 2026-05-04 01:54 | 43.63475 | -79.37416 | 581 ft | 87 kts | 247° |
| 2026-05-04 01:54 | 43.63267 | -79.38207 | 435 ft | 86 kts | 250° |
| 2026-05-04 01:54 | 43.63089 | -79.38946 | 282 ft | 75 kts | 248° |
| 2026-05-04 01:55 | 43.62987 | -79.39361 | 251 ft | 62 kts | 247° |
| 2026-05-04 01:55 | 43.62840 | -79.39956 | 248 ft | 35 kts | 251° |
| 2026-05-04 01:55 | 43.62785 | -79.40191 | 247 ft | 19 kts | 254° |
| 2026-05-04 01:55 | 43.62805 | -79.40327 | 248 ft | 12 kts | 343° |
| 2026-05-04 01:56 | 43.62885 | -79.40258 | 249 ft | 16 kts | 40° |
| 2026-05-04 01:56 | 43.62976 | -79.40145 | 249 ft | 17 kts | 46° |
| 2026-05-04 01:56 | 43.63022 | -79.40029 | 249 ft | 16 kts | 95° |
| 2026-05-04 01:56 | 43.62979 | -79.39875 | 249 ft | 17 kts | 113° |
| 2026-05-04 01:57 | 43.62980 | -79.39748 | 249 ft | 13 kts | 70° |
| 2026-05-04 01:57 | 43.63030 | -79.39714 | 249 ft | 6 kts | 339° |
| 2026-05-04 01:57 | 43.63039 | -79.39773 | 249 ft | 8 kts | 240° |
| 2026-05-04 01:57 | 43.63010 | -79.39779 | 249 ft | 0 kts | 162° |